Whipple, Ohio
Current Conditions -  °F | °C
As of 7:53 PM on Thursday 18 Dec 2014 (Local Time) from KPKB Reporting Station
Overcast Overcast  
Wind Chill: 29°   Ceiling: 2400
Heat Index: 29°   Visibility: 10mi
Dew Point: 20°   Wind: 3mph
Humidity: 69%   Direction: 270°W
Pressure: 30.22"   Gusts: NA
Location:  39.52°N, 81.41°W
Report Text: KPKB 190053Z 27003KT 10SM OVC024 M02/M07 A3022 RMK AO2 SLP244 T10171067
Loading
Personal Weather Stations






























Interactive Weather Map New forecast layout! Learn more

10-Day Weather Forecast

Advertisements
Track Severe Weather on mobile